Flight Track Log - Related Links

Times and Time Zones

All times are in EDT time to prevent confusion due to time zone crossing. See the FFT901 flight status page for this flight to view local times or setup timezone preferences in your user account.

Time Position Orientation Groundspeed Altitude Reporting Facility
EDT Latitude Longitude Course Direction KTS MPH feet Rate Location/Type
Wed 06:03:54 AM 40.2833 -74.8000 339° North 159 183 900  Level Philadelphia TRACON
Wed 06:04:42 AM 40.3167 -74.8167 339° North 196 226 2,000 1,947 Climbing Philadelphia TRACON
Wed 06:05:48 AM 40.2833 -74.9000 242° Southwest 271 312 4,600 2,290 Climbing Philadelphia TRACON
Wed 06:06:53 AM 40.2300 -74.9822 230° Southwest 281 323 7,000 1,143 Climbing New York Center
Wed 06:07:54 AM 40.1775 -75.0578 228° Southwest 291 335 7,000 98 Level New York Center
Wed 06:08:55 AM 40.1433 -75.1344 240° Southwest 281 323 7,200 807 Climbing New York Center
Wed 06:09:53 AM 40.0981 -75.2292 238° Southwest 276 318 8,600 1,008 Climbing New York Center
Wed 06:10:54 AM 40.0592 -75.3164 240° Southwest 276 318 9,200 639 Climbing New York Center
Wed 06:11:55 AM 40.0228 -75.3953 239° Southwest 282 325 9,900 1,200 Climbing New York Center
Wed 06:12:54 AM 39.9769 -75.5006 240° Southwest 298 343 11,600 2,319 Climbing New York Center
Wed 06:13:54 AM 39.9269 -75.6056 238° Southwest 336 387 14,500 2,579 Climbing New York Center
Wed 06:14:55 AM 39.8786 -75.7131 240° Southwest 343 395 16,800 2,182 Climbing New York Center
Wed 06:15:55 AM 39.8361 -75.8317 245° Southwest 353 406 18,900 2,034 Climbing New York Center
Wed 06:16:53 AM 39.7961 -75.9369 244° Southwest 358 412 20,800 1,773 Climbing New York Center
Wed 06:18:51 AM 39.6694 -76.1514 233° Southwest 383 441 24,100 1,633 Climbing Washington Center
Wed 06:19:53 AM 39.6031 -76.2678 234° Southwest 400 460 25,700 1,561 Climbing Washington Center
Wed 06:20:54 AM 39.5350 -76.3872 234° Southwest 407 468 27,300 1,550 Climbing Washington Center
Wed 06:21:53 AM 39.4608 -76.5153 233° Southwest 410 472 28,800 1,400 Climbing Washington Center
Wed 06:22:54 AM 39.3897 -76.6367 233° Southwest 421 484 30,100 1,200 Climbing Washington Center
Wed 06:23:58 AM 39.3200 -76.7592 234° Southwest 422 486 31,300 1,463 Climbing Washington Center
Wed 06:24:57 AM 39.2483 -76.8817 233° Southwest 426 490 33,100 1,550 Climbing Washington Center
Wed 06:25:58 AM 39.1878 -77.0083 238° Southwest 425 489 34,400 1,016 Climbing Washington Center
Wed 06:27:01 AM 39.1817 -77.1581 267° West 421 484 35,200 1,024 Climbing Washington Center
Wed 06:28:01 AM 39.1825 -77.3081 270° West 422 486 36,500 1,140 Climbing Washington Center
Wed 06:29:02 AM 39.1764 -77.4542 267° West 422 486 37,500 738 Climbing Washington Center
Wed 06:30:03 AM 39.0986 -77.5839 232° Southwest 419 482 38,000 246 Climbing Washington Center
Wed 06:31:04 AM 39.0169 -77.6894 225° Southwest 419 482 38,000  Level Washington Center
Wed 06:32:04 AM 38.9364 -77.7964 226° Southwest 419 482 38,000  Level Washington Center
Wed 06:33:06 AM 38.8519 -77.9044 225° Southwest 419 482 38,000  Level Washington Center
Wed 06:34:07 AM 38.7708 -78.0089 225° Southwest 419 482 38,000  Level Washington Center
Wed 06:35:07 AM 38.6881 -78.1142 225° Southwest 419 482 38,000  Level Washington Center
Wed 06:36:08 AM 38.6056 -78.2200 225° Southwest 419 482 38,000  Level Washington Center
Wed 06:37:09 AM 38.5217 -78.3256 225° Southwest 421 484 38,000  Level Washington Center
Wed 06:38:13 AM 38.4217 -78.4539 225° Southwest 422 486 38,000  Level Washington Center
Wed 06:39:11 AM 38.3392 -78.5583 225° Southwest 421 484 38,000  Level Washington Center
Wed 06:40:12 AM 38.2600 -78.6578 225° Southwest 420 483 38,000  Level Washington Center
Wed 06:41:16 AM 38.1803 -78.7594 225° Southwest 410 472 38,000 -48 Level Washington Center
Wed 06:42:16 AM 38.0992 -78.8589 224° Southwest 408 470 37,900  Descending Washington Center
Wed 06:43:18 AM 38.0189 -78.9608 225° Southwest 408 470 38,000 49 Climbing Washington Center
Wed 06:44:18 AM 37.9378 -79.0603 224° Southwest 408 470 38,000  Level Washington Center
Wed 06:45:19 AM 37.8594 -79.1642 226° Southwest 408 470 38,000  Level Washington Center
Wed 06:46:20 AM 37.7681 -79.2917 228° Southwest 408 470 38,000  Level Washington Center
Wed 06:47:24 AM 37.7025 -79.3814 227° Southwest 408 470 38,000  Level Washington Center
Wed 06:48:24 AM 37.6272 -79.4867 228° Southwest 406 467 38,000  Level Washington Center
Wed 06:49:25 AM 37.5358 -79.6094 227° Southwest 404 465 38,000  Level Washington Center
Wed 06:50:26 AM 37.4619 -79.7131 228° Southwest 401 461 38,000 -48 Level Washington Center
Wed 06:51:29 AM 37.3844 -79.8189 227° Southwest 397 457 37,900 -48 Descending Washington Center
Wed 06:52:30 AM 37.3117 -79.9178 227° Southwest 390 449 37,900 50 Level Washington Center
Wed 06:53:29 AM 37.2367 -80.0189 227° Southwest 392 451 38,000 49 Climbing Washington Center
Wed 06:54:33 AM 37.1619 -80.1197 227° Southwest 393 452 38,000  Level Washington Center
Wed 06:55:34 AM 37.0878 -80.2203 227° Southwest 396 456 38,000  Level Washington Center
Wed 06:56:36 AM 37.0122 -80.3211 227° Southwest 395 455 38,000  Level Washington Center
Wed 06:57:37 AM 36.9383 -80.4222 228° Southwest 395 455 38,000  Level Washington Center
Wed 06:58:43 AM 36.8469 -80.5447 227° Southwest 404 465 38,000  Level Atlanta Center
Wed 06:59:43 AM 36.7725 -80.6439 227° Southwest 404 465 38,000  Level Atlanta Center
Wed 07:00:43 AM 36.6919 -80.7483 226° Southwest 390 449 38,000  Level Atlanta Center
Wed 07:01:43 AM 36.6175 -80.8472 227° Southwest 390 449 38,000  Level Atlanta Center
Wed 07:02:43 AM 36.5428 -80.9483 227° Southwest 390 449 38,000  Level Atlanta Center
Wed 07:03:43 AM 36.4681 -81.0467 227° Southwest 390 449 38,000  Level Atlanta Center
Wed 07:04:43 AM 36.3911 -81.1450 226° Southwest 390 449 38,000  Level Atlanta Center
Wed 07:05:43 AM 36.3186 -81.2456 228° Southwest 390 449 38,000  Level Atlanta Center
Wed 07:06:43 AM 36.2417 -81.3486 227° Southwest 396 456 38,000  Level Atlanta Center
Wed 07:07:43 AM 36.1664 -81.4461 226° Southwest 396 456 38,000  Level Atlanta Center
Wed 07:08:43 AM 36.0914 -81.5436 226° Southwest 401 461 38,000  Level Atlanta Center
Wed 07:09:43 AM 36.0142 -81.6436 226° Southwest 401 461 38,000  Level Atlanta Center
Wed 07:10:43 AM 35.9367 -81.7433 226° Southwest 407 468 38,000  Level Atlanta Center
Wed 07:11:43 AM 35.8614 -81.8428 227° Southwest 407 468 38,000  Level Atlanta Center
Wed 07:12:43 AM 35.7836 -81.9397 225° Southwest 407 468 38,000 -150 Level Atlanta Center
Wed 07:13:43 AM 35.7061 -82.0414 227° Southwest 407 468 37,700 -500 Descending Atlanta Center
Wed 07:14:43 AM 35.6283 -82.1403 226° Southwest 407 468 37,000 -800 Descending Atlanta Center
Wed 07:15:43 AM 35.5486 -82.2342 224° Southwest 407 468 36,100 -950 Descending Atlanta Center
Wed 07:16:43 AM 35.4603 -82.3306 222° Southwest 412 474 35,100 -1,000 Descending Atlanta Center
Wed 07:17:43 AM 35.3761 -82.4289 224° Southwest 422 486 34,100 -1,000 Descending Atlanta Center
Wed 07:18:43 AM 35.2856 -82.5275 222° Southwest 427 491 33,100 -900 Descending Atlanta Center
Wed 07:19:43 AM 35.2072 -82.6178 223° Southwest 432 497 32,300 -900 Descending Atlanta Center
Wed 07:20:43 AM 35.1186 -82.7133 221° Southwest 432 497 31,300 -1,000 Descending Atlanta Center
Wed 07:21:43 AM 35.0297 -82.8111 222° Southwest 437 503 30,300 -1,000 Descending Atlanta Center
Wed 07:22:43 AM 34.9431 -82.9061 222° Southwest 449 517 29,300 -1,100 Descending Atlanta Center
Wed 07:23:43 AM 34.8272 -83.0267 221° Southwest 455 524 28,100 -1,050 Descending Atlanta Center
Wed 07:24:43 AM 34.7383 -83.1314 224° Southwest 455 524 27,200 -1,000 Descending Atlanta Center
Wed 07:25:43 AM 34.6431 -83.2358 222° Southwest 460 529 26,100 -2,100 Descending Atlanta Center
Wed 07:26:43 AM 34.5500 -83.3403 223° Southwest 466 536 23,000 -3,200 Descending Atlanta Center
Wed 07:27:43 AM 34.4606 -83.4367 222° Southwest 458 527 19,700 -2,800 Descending Atlanta Center
Wed 07:28:43 AM 34.3733 -83.5306 222° Southwest 445 512 17,400 -2,200 Descending Atlanta Center
Wed 07:29:43 AM 34.2922 -83.6189 222° Southwest 423 487 15,300 -2,000 Descending Atlanta Center
Wed 07:30:43 AM 34.2133 -83.7072 223° Southwest 404 465 13,400 -1,350 Descending Atlanta Center
Wed 07:31:43 AM 34.1425 -83.7828 221° Southwest 374 430 12,600 -650 Descending Atlanta Center
Wed 07:32:43 AM 34.0781 -83.8533 222° Southwest 343 395 12,100 -467 Descending Atlanta Center
Wed 07:33:13 AM 34.0500 -83.8833 222° Southwest 304 350 11,900 -1,125 Descending Atlanta TRACON
Wed 07:34:19 AM 33.9833 -83.9667 226° Southwest 288 331 10,300 -1,240 Descending Atlanta TRACON
Wed 07:35:43 AM 33.8611 -83.9861 188° South 296 341 8,800 -958 Descending Atlanta Center
Wed 07:36:43 AM 33.7817 -84.0114 195° South 302 348 8,000 -900 Descending Atlanta Center
Wed 07:37:43 AM 33.7317 -84.0714 225° Southwest 279 321 7,000 -1,250 Descending Atlanta Center
Wed 07:38:43 AM 33.6897 -84.1461 236° Southwest 279 321 5,500 -1,667 Descending Atlanta Center
Wed 07:39:13 AM 33.6667 -84.2000 243° Southwest 254 292 4,500 -1,375 Descending Atlanta TRACON
Wed 07:40:19 AM 33.6500 -84.2667 253° West 198 228 3,300 -1,000 Descending Atlanta TRACON
Wed 07:41:13 AM 33.6500 -84.3167 270° West 159 183 2,500 -789 Descending Atlanta TRACON
Wed 07:42:13 AM 33.6500 -84.3667 270° West 127 146 1,800 -700 Descending Atlanta TRACON
Wed 07:44:00 AM 33.6367 -84.4279 270° West  Level Estimated

Login

Don't have an account? Register now (free) for customized features, flight alerts, and more!